KCKB/CKB METAR and TAF weather

Enter ICAO airport designator
Station Type Date Time Source
KCKB METAR 2018/04/21 12:53 UTC NOAA

KCKB 211253Z 00000KT 10SM CLR 04/M03 A3046 RMK AO2 SLP314 T00441028


Station Type Date Time Source
KCKB Decoded METAR 2018/04/21 12:53 UTC NOAA

HARRISON/MARION REGIONAL, WV, United States (KCKB) 39-18N 080-13W 360M
Apr 21, 2018 - 08:53 AM EDT / 2018.04.21 1253 UTC
Wind: Calm:0
Visibility: 10 mile(s):0
Sky conditions: clear
Temperature: 39.9 F (4.4 C)
Dew Point: 27.0 F (-2.8 C)
Relative Humidity: 59%
Pressure (altimeter): 30.46 in. Hg (1031 hPa)
ob: KCKB 211253Z 00000KT 10SM CLR 04/M03 A3046 RMK AO2 SLP314 T00441028
cycle: 13

Station Type Date Time Source
KCKB TAF 2018/04/21 12:22 UTC NOAA

TAF KCKB 211120Z 2112/2212 00000KT P6SM SKC
FM211600 06003KT P6SM SCT250
FM220000 00000KT P6SM BKN180


Example: see airport list